sensor_id;sensor_type;location;lat;lon;timestamp;P1;durP1;ratioP1;P2;durP2;ratioP2
66607;SDS011;53462;39.616;8.824;2024-03-02T00:02:17;11.43;;;1.58;;
66607;SDS011;53462;39.616;8.824;2024-03-02T00:04:44;8.82;;;1.35;;
66607;SDS011;53462;39.616;8.824;2024-03-02T00:07:10;21.52;;;2.05;;
66607;SDS011;53462;39.616;8.824;2024-03-02T00:09:40;9.27;;;1.67;;
66607;SDS011;53462;39.616;8.824;2024-03-02T00:12:06;9.68;;;1.40;;
66607;SDS011;53462;39.616;8.824;2024-03-02T00:14:32;11.02;;;1.50;;
66607;SDS011;53462;39.616;8.824;2024-03-02T00:16:58;8.25;;;1.20;;
66607;SDS011;53462;39.616;8.824;2024-03-02T00:19:24;9.95;;;1.60;;
66607;SDS011;53462;39.616;8.824;2024-03-02T00:21:50;7.85;;;1.45;;
66607;SDS011;53462;39.616;8.824;2024-03-02T00:24:29;13.25;;;1.52;;
66607;SDS011;53462;39.616;8.824;2024-03-02T00:26:59;9.57;;;1.40;;
66607;SDS011;53462;39.616;8.824;2024-03-02T00:29:24;5.80;;;1.10;;
66607;SDS011;53462;39.616;8.824;2024-03-02T00:31:52;5.95;;;1.20;;
66607;SDS011;53462;39.616;8.824;2024-03-02T00:34:18;10.75;;;1.30;;
66607;SDS011;53462;39.616;8.824;2024-03-02T00:36:44;11.63;;;1.63;;
66607;SDS011;53462;39.616;8.824;2024-03-02T00:39:11;12.35;;;1.50;;
66607;SDS011;53462;39.616;8.824;2024-03-02T00:41:40;5.65;;;1.52;;
66607;SDS011;53462;39.616;8.824;2024-03-02T00:44:10;3.60;;;1.00;;
66607;SDS011;53462;39.616;8.824;2024-03-02T00:46:38;7.38;;;1.30;;
66607;SDS011;53462;39.616;8.824;2024-03-02T00:49:11;9.23;;;1.50;;
66607;SDS011;53462;39.616;8.824;2024-03-02T00:51:46;4.95;;;1.42;;
66607;SDS011;53462;39.616;8.824;2024-03-02T00:54:23;6.85;;;1.42;;
66607;SDS011;53462;39.616;8.824;2024-03-02T00:56:51;7.55;;;1.58;;
66607;SDS011;53462;39.616;8.824;2024-03-02T00:59:21;10.10;;;1.27;;
66607;SDS011;53462;39.616;8.824;2024-03-02T01:01:48;7.85;;;1.23;;
66607;SDS011;53462;39.616;8.824;2024-03-02T01:04:15;10.35;;;1.52;;
66607;SDS011;53462;39.616;8.824;2024-03-02T01:06:44;9.30;;;1.52;;
66607;SDS011;53462;39.616;8.824;2024-03-02T01:09:10;8.15;;;1.35;;
66607;SDS011;53462;39.616;8.824;2024-03-02T01:11:37;6.85;;;1.27;;
66607;SDS011;53462;39.616;8.824;2024-03-02T01:14:03;6.97;;;1.27;;
66607;SDS011;53462;39.616;8.824;2024-03-02T01:16:29;7.25;;;1.38;;
66607;SDS011;53462;39.616;8.824;2024-03-02T01:18:55;8.68;;;1.60;;
66607;SDS011;53462;39.616;8.824;2024-03-02T01:21:21;8.68;;;1.25;;
66607;SDS011;53462;39.616;8.824;2024-03-02T01:23:47;10.57;;;1.50;;
66607;SDS011;53462;39.616;8.824;2024-03-02T01:26:13;11.68;;;1.52;;
66607;SDS011;53462;39.616;8.824;2024-03-02T01:28:39;7.75;;;1.27;;
66607;SDS011;53462;39.616;8.824;2024-03-02T01:31:05;5.38;;;1.15;;
66607;SDS011;53462;39.616;8.824;2024-03-02T01:33:30;7.07;;;1.75;;
66607;SDS011;53462;39.616;8.824;2024-03-02T01:35:56;10.18;;;1.27;;
66607;SDS011;53462;39.616;8.824;2024-03-02T01:38:23;4.32;;;0.93;;
66607;SDS011;53462;39.616;8.824;2024-03-02T01:40:48;8.02;;;1.40;;
66607;SDS011;53462;39.616;8.824;2024-03-02T01:43:15;11.68;;;1.55;;
66607;SDS011;53462;39.616;8.824;2024-03-02T01:45:41;11.25;;;1.23;;
66607;SDS011;53462;39.616;8.824;2024-03-02T01:48:07;10.27;;;1.17;;
66607;SDS011;53462;39.616;8.824;2024-03-02T01:50:33;13.10;;;1.52;;
66607;SDS011;53462;39.616;8.824;2024-03-02T01:52:59;7.32;;;1.42;;
66607;SDS011;53462;39.616;8.824;2024-03-02T01:55:27;8.27;;;1.20;;
66607;SDS011;53462;39.616;8.824;2024-03-02T01:57:55;4.78;;;0.95;;
66607;SDS011;53462;39.616;8.824;2024-03-02T02:00:21;8.15;;;1.67;;
66607;SDS011;53462;39.616;8.824;2024-03-02T02:02:49;10.20;;;1.63;;
66607;SDS011;53462;39.616;8.824;2024-03-02T02:05:15;9.25;;;1.20;;
66607;SDS011;53462;39.616;8.824;2024-03-02T02:07:42;9.32;;;1.33;;
66607;SDS011;53462;39.616;8.824;2024-03-02T02:10:09;10.48;;;1.45;;
66607;SDS011;53462;39.616;8.824;2024-03-02T02:12:36;8.23;;;1.13;;
66607;SDS011;53462;39.616;8.824;2024-03-02T02:15:02;7.82;;;1.50;;
66607;SDS011;53462;39.616;8.824;2024-03-02T02:17:29;7.95;;;1.27;;
66607;SDS011;53462;39.616;8.824;2024-03-02T02:19:54;7.28;;;1.50;;
66607;SDS011;53462;39.616;8.824;2024-03-02T02:22:20;6.95;;;1.45;;
66607;SDS011;53462;39.616;8.824;2024-03-02T02:24:46;6.43;;;1.35;;
66607;SDS011;53462;39.616;8.824;2024-03-02T02:27:12;6.68;;;1.90;;
66607;SDS011;53462;39.616;8.824;2024-03-02T02:29:40;8.98;;;1.25;;
66607;SDS011;53462;39.616;8.824;2024-03-02T02:32:07;8.80;;;1.20;;
66607;SDS011;53462;39.616;8.824;2024-03-02T02:34:33;9.20;;;1.48;;
66607;SDS011;53462;39.616;8.824;2024-03-02T02:36:59;12.02;;;1.10;;
66607;SDS011;53462;39.616;8.824;2024-03-02T02:39:25;10.55;;;1.40;;
66607;SDS011;53462;39.616;8.824;2024-03-02T02:41:51;9.05;;;1.33;;
66607;SDS011;53462;39.616;8.824;2024-03-02T02:44:17;7.88;;;1.90;;
66607;SDS011;53462;39.616;8.824;2024-03-02T02:46:43;9.48;;;1.50;;
66607;SDS011;53462;39.616;8.824;2024-03-02T02:49:08;8.15;;;1.00;;
66607;SDS011;53462;39.616;8.824;2024-03-02T02:51:34;10.68;;;1.17;;
66607;SDS011;53462;39.616;8.824;2024-03-02T02:54:00;9.13;;;1.30;;
66607;SDS011;53462;39.616;8.824;2024-03-02T02:56:26;7.10;;;1.27;;
66607;SDS011;53462;39.616;8.824;2024-03-02T02:58:52;13.95;;;1.77;;
66607;SDS011;53462;39.616;8.824;2024-03-02T03:01:18;6.53;;;1.60;;
66607;SDS011;53462;39.616;8.824;2024-03-02T03:03:44;6.80;;;1.10;;
66607;SDS011;53462;39.616;8.824;2024-03-02T03:06:11;6.40;;;1.30;;
66607;SDS011;53462;39.616;8.824;2024-03-02T03:08:37;9.70;;;1.40;;
66607;SDS011;53462;39.616;8.824;2024-03-02T03:11:03;4.53;;;0.90;;
66607;SDS011;53462;39.616;8.824;2024-03-02T03:13:30;6.90;;;1.02;;
66607;SDS011;53462;39.616;8.824;2024-03-02T03:15:57;9.35;;;1.65;;
66607;SDS011;53462;39.616;8.824;2024-03-02T03:18:23;6.28;;;1.35;;
66607;SDS011;53462;39.616;8.824;2024-03-02T03:20:49;5.30;;;0.93;;
66607;SDS011;53462;39.616;8.824;2024-03-02T03:23:15;4.80;;;1.15;;
66607;SDS011;53462;39.616;8.824;2024-03-02T03:25:45;7.22;;;1.20;;
66607;SDS011;53462;39.616;8.824;2024-03-02T03:28:10;7.45;;;1.30;;
66607;SDS011;53462;39.616;8.824;2024-03-02T03:30:37;6.93;;;1.27;;
66607;SDS011;53462;39.616;8.824;2024-03-02T03:33:04;4.03;;;1.02;;
66607;SDS011;53462;39.616;8.824;2024-03-02T03:35:31;8.18;;;1.40;;
66607;SDS011;53462;39.616;8.824;2024-03-02T03:37:57;6.45;;;1.38;;
66607;SDS011;53462;39.616;8.824;2024-03-02T03:40:23;8.75;;;1.70;;
66607;SDS011;53462;39.616;8.824;2024-03-02T03:42:50;5.45;;;1.02;;
66607;SDS011;53462;39.616;8.824;2024-03-02T03:45:16;8.07;;;1.25;;
66607;SDS011;53462;39.616;8.824;2024-03-02T03:47:42;5.57;;;1.08;;
66607;SDS011;53462;39.616;8.824;2024-03-02T03:50:08;4.97;;;1.00;;
66607;SDS011;53462;39.616;8.824;2024-03-02T03:52:34;5.88;;;0.80;;
66607;SDS011;53462;39.616;8.824;2024-03-02T03:55:00;7.75;;;1.02;;
66607;SDS011;53462;39.616;8.824;2024-03-02T03:57:27;6.30;;;1.55;;
66607;SDS011;53462;39.616;8.824;2024-03-02T03:59:53;6.95;;;1.00;;
66607;SDS011;53462;39.616;8.824;2024-03-02T04:02:19;7.95;;;1.00;;
66607;SDS011;53462;39.616;8.824;2024-03-02T04:04:45;7.75;;;1.10;;
66607;SDS011;53462;39.616;8.824;2024-03-02T04:07:11;7.55;;;1.52;;
66607;SDS011;53462;39.616;8.824;2024-03-02T04:09:37;8.02;;;1.10;;
66607;SDS011;53462;39.616;8.824;2024-03-02T04:12:03;5.57;;;1.05;;
66607;SDS011;53462;39.616;8.824;2024-03-02T04:14:29;4.90;;;0.98;;
66607;SDS011;53462;39.616;8.824;2024-03-02T04:16:55;4.32;;;1.02;;
66607;SDS011;53462;39.616;8.824;2024-03-02T04:19:21;9.60;;;1.17;;
66607;SDS011;53462;39.616;8.824;2024-03-02T04:21:47;6.03;;;1.00;;
66607;SDS011;53462;39.616;8.824;2024-03-02T04:24:12;3.40;;;1.02;;
66607;SDS011;53462;39.616;8.824;2024-03-02T04:26:38;4.28;;;1.15;;
66607;SDS011;53462;39.616;8.824;2024-03-02T04:29:04;6.80;;;1.15;;
66607;SDS011;53462;39.616;8.824;2024-03-02T04:31:30;6.38;;;1.10;;
66607;SDS011;53462;39.616;8.824;2024-03-02T04:33:56;8.77;;;1.40;;
66607;SDS011;53462;39.616;8.824;2024-03-02T04:36:22;4.90;;;1.10;;
66607;SDS011;53462;39.616;8.824;2024-03-02T04:38:48;7.78;;;1.40;;
66607;SDS011;53462;39.616;8.824;2024-03-02T04:41:14;7.13;;;1.30;;
66607;SDS011;53462;39.616;8.824;2024-03-02T04:43:40;6.30;;;1.45;;
66607;SDS011;53462;39.616;8.824;2024-03-02T04:46:06;5.00;;;1.10;;
66607;SDS011;53462;39.616;8.824;2024-03-02T04:48:33;5.60;;;1.17;;
66607;SDS011;53462;39.616;8.824;2024-03-02T04:50:59;8.50;;;1.25;;
66607;SDS011;53462;39.616;8.824;2024-03-02T04:53:25;3.85;;;1.20;;
66607;SDS011;53462;39.616;8.824;2024-03-02T04:55:51;11.52;;;1.50;;
66607;SDS011;53462;39.616;8.824;2024-03-02T04:58:19;9.82;;;1.38;;
66607;SDS011;53462;39.616;8.824;2024-03-02T05:00:45;4.75;;;1.00;;
66607;SDS011;53462;39.616;8.824;2024-03-02T05:03:14;9.75;;;1.10;;
66607;SDS011;53462;39.616;8.824;2024-03-02T05:05:40;5.97;;;0.70;;
66607;SDS011;53462;39.616;8.824;2024-03-02T05:08:06;7.38;;;0.98;;
66607;SDS011;53462;39.616;8.824;2024-03-02T05:10:31;3.92;;;1.17;;
66607;SDS011;53462;39.616;8.824;2024-03-02T05:12:57;4.32;;;1.00;;
66607;SDS011;53462;39.616;8.824;2024-03-02T05:15:24;6.30;;;1.20;;
66607;SDS011;53462;39.616;8.824;2024-03-02T05:17:50;6.97;;;1.50;;
66607;SDS011;53462;39.616;8.824;2024-03-02T05:20:16;8.60;;;1.10;;
66607;SDS011;53462;39.616;8.824;2024-03-02T05:22:42;7.28;;;1.25;;
66607;SDS011;53462;39.616;8.824;2024-03-02T05:25:08;2.72;;;0.82;;
66607;SDS011;53462;39.616;8.824;2024-03-02T05:27:37;8.25;;;1.20;;
66607;SDS011;53462;39.616;8.824;2024-03-02T05:30:03;5.65;;;0.80;;
66607;SDS011;53462;39.616;8.824;2024-03-02T05:32:31;8.43;;;1.33;;
66607;SDS011;53462;39.616;8.824;2024-03-02T05:34:58;6.63;;;1.10;;
66607;SDS011;53462;39.616;8.824;2024-03-02T05:37:24;4.82;;;0.93;;
66607;SDS011;53462;39.616;8.824;2024-03-02T05:39:50;6.65;;;0.88;;
66607;SDS011;53462;39.616;8.824;2024-03-02T05:42:16;6.22;;;0.85;;
66607;SDS011;53462;39.616;8.824;2024-03-02T05:44:42;7.28;;;1.35;;
66607;SDS011;53462;39.616;8.824;2024-03-02T05:47:08;5.22;;;0.90;;
66607;SDS011;53462;39.616;8.824;2024-03-02T05:49:34;5.35;;;1.40;;
66607;SDS011;53462;39.616;8.824;2024-03-02T05:52:00;7.43;;;1.60;;
66607;SDS011;53462;39.616;8.824;2024-03-02T05:54:26;7.25;;;2.28;;
66607;SDS011;53462;39.616;8.824;2024-03-02T05:56:52;8.40;;;3.10;;
66607;SDS011;53462;39.616;8.824;2024-03-02T05:59:18;14.27;;;5.28;;
66607;SDS011;53462;39.616;8.824;2024-03-02T06:01:44;10.43;;;3.45;;
66607;SDS011;53462;39.616;8.824;2024-03-02T06:04:11;6.57;;;2.30;;
66607;SDS011;53462;39.616;8.824;2024-03-02T06:06:38;5.57;;;1.42;;
66607;SDS011;53462;39.616;8.824;2024-03-02T06:09:07;11.13;;;1.30;;
66607;SDS011;53462;39.616;8.824;2024-03-02T06:11:33;6.65;;;1.20;;
66607;SDS011;53462;39.616;8.824;2024-03-02T06:14:03;7.97;;;1.30;;
66607;SDS011;53462;39.616;8.824;2024-03-02T06:16:30;9.90;;;1.15;;
66607;SDS011;53462;39.616;8.824;2024-03-02T06:18:56;7.93;;;1.90;;
66607;SDS011;53462;39.616;8.824;2024-03-02T06:21:25;8.07;;;2.72;;
66607;SDS011;53462;39.616;8.824;2024-03-02T06:23:51;7.78;;;3.30;;
66607;SDS011;53462;39.616;8.824;2024-03-02T06:26:18;7.05;;;2.80;;
66607;SDS011;53462;39.616;8.824;2024-03-02T06:28:44;9.98;;;3.10;;
66607;SDS011;53462;39.616;8.824;2024-03-02T06:31:10;7.05;;;2.88;;
66607;SDS011;53462;39.616;8.824;2024-03-02T06:33:36;7.97;;;2.70;;
66607;SDS011;53462;39.616;8.824;2024-03-02T06:36:03;7.50;;;2.40;;
66607;SDS011;53462;39.616;8.824;2024-03-02T06:38:29;9.43;;;2.13;;
66607;SDS011;53462;39.616;8.824;2024-03-02T06:40:57;6.32;;;2.65;;
66607;SDS011;53462;39.616;8.824;2024-03-02T06:43:23;16.33;;;8.20;;
66607;SDS011;53462;39.616;8.824;2024-03-02T06:45:49;14.63;;;7.00;;
66607;SDS011;53462;39.616;8.824;2024-03-02T06:48:16;12.52;;;5.68;;
66607;SDS011;53462;39.616;8.824;2024-03-02T06:50:45;10.30;;;3.97;;
66607;SDS011;53462;39.616;8.824;2024-03-02T06:53:13;11.30;;;5.88;;
66607;SDS011;53462;39.616;8.824;2024-03-02T06:55:39;20.70;;;9.70;;
66607;SDS011;53462;39.616;8.824;2024-03-02T06:58:05;19.55;;;8.85;;
66607;SDS011;53462;39.616;8.824;2024-03-02T07:00:31;24.50;;;9.45;;
66607;SDS011;53462;39.616;8.824;2024-03-02T07:02:57;13.88;;;7.45;;
66607;SDS011;53462;39.616;8.824;2024-03-02T07:05:23;10.57;;;3.92;;
66607;SDS011;53462;39.616;8.824;2024-03-02T07:07:49;10.38;;;5.30;;
66607;SDS011;53462;39.616;8.824;2024-03-02T07:10:15;17.42;;;7.28;;
66607;SDS011;53462;39.616;8.824;2024-03-02T07:12:41;17.00;;;6.85;;
66607;SDS011;53462;39.616;8.824;2024-03-02T07:15:07;19.92;;;7.25;;
66607;SDS011;53462;39.616;8.824;2024-03-02T07:17:43;29.92;;;10.05;;
66607;SDS011;53462;39.616;8.824;2024-03-02T07:20:09;27.35;;;10.38;;
66607;SDS011;53462;39.616;8.824;2024-03-02T07:22:37;20.35;;;7.50;;
66607;SDS011;53462;39.616;8.824;2024-03-02T07:25:03;17.35;;;6.97;;
66607;SDS011;53462;39.616;8.824;2024-03-02T07:27:30;22.50;;;7.95;;
66607;SDS011;53462;39.616;8.824;2024-03-02T07:29:57;36.83;;;19.15;;
66607;SDS011;53462;39.616;8.824;2024-03-02T07:32:22;37.03;;;23.42;;
66607;SDS011;53462;39.616;8.824;2024-03-02T07:34:48;14.52;;;6.80;;
66607;SDS011;53462;39.616;8.824;2024-03-02T07:37:16;13.32;;;6.97;;
66607;SDS011;53462;39.616;8.824;2024-03-02T07:39:43;14.45;;;8.30;;
66607;SDS011;53462;39.616;8.824;2024-03-02T07:42:10;19.13;;;7.78;;
66607;SDS011;53462;39.616;8.824;2024-03-02T07:44:36;15.10;;;6.10;;
66607;SDS011;53462;39.616;8.824;2024-03-02T07:47:02;21.65;;;10.32;;
66607;SDS011;53462;39.616;8.824;2024-03-02T07:49:28;32.63;;;18.10;;
66607;SDS011;53462;39.616;8.824;2024-03-02T07:51:54;55.03;;;32.15;;
66607;SDS011;53462;39.616;8.824;2024-03-02T07:54:20;48.72;;;28.77;;
66607;SDS011;53462;39.616;8.824;2024-03-02T07:56:46;40.63;;;25.88;;
66607;SDS011;53462;39.616;8.824;2024-03-02T07:59:12;18.25;;;9.13;;
66607;SDS011;53462;39.616;8.824;2024-03-02T08:01:38;15.48;;;6.75;;
66607;SDS011;53462;39.616;8.824;2024-03-02T08:04:05;14.15;;;5.32;;
66607;SDS011;53462;39.616;8.824;2024-03-02T08:06:31;11.75;;;6.82;;
66607;SDS011;53462;39.616;8.824;2024-03-02T08:08:58;10.35;;;4.90;;
66607;SDS011;53462;39.616;8.824;2024-03-02T08:11:25;10.15;;;3.63;;
66607;SDS011;53462;39.616;8.824;2024-03-02T08:13:52;14.98;;;5.30;;
66607;SDS011;53462;39.616;8.824;2024-03-02T08:16:20;9.10;;;2.55;;
66607;SDS011;53462;39.616;8.824;2024-03-02T08:18:48;7.00;;;2.70;;
66607;SDS011;53462;39.616;8.824;2024-03-02T08:21:17;6.00;;;1.77;;
66607;SDS011;53462;39.616;8.824;2024-03-02T08:23:43;7.65;;;2.47;;
66607;SDS011;53462;39.616;8.824;2024-03-02T08:26:09;7.15;;;2.10;;
66607;SDS011;53462;39.616;8.824;2024-03-02T08:28:36;8.05;;;2.30;;
66607;SDS011;53462;39.616;8.824;2024-03-02T08:31:03;3.33;;;1.30;;
66607;SDS011;53462;39.616;8.824;2024-03-02T08:33:29;7.45;;;1.10;;
66607;SDS011;53462;39.616;8.824;2024-03-02T08:35:55;6.32;;;1.40;;
66607;SDS011;53462;39.616;8.824;2024-03-02T08:38:22;5.07;;;1.27;;
66607;SDS011;53462;39.616;8.824;2024-03-02T08:40:49;5.13;;;1.08;;
66607;SDS011;53462;39.616;8.824;2024-03-02T08:43:15;4.75;;;1.02;;
66607;SDS011;53462;39.616;8.824;2024-03-02T08:45:41;6.10;;;1.33;;
66607;SDS011;53462;39.616;8.824;2024-03-02T08:48:08;4.25;;;1.00;;
66607;SDS011;53462;39.616;8.824;2024-03-02T08:50:34;6.65;;;1.00;;
66607;SDS011;53462;39.616;8.824;2024-03-02T08:53:01;4.50;;;1.30;;
66607;SDS011;53462;39.616;8.824;2024-03-02T08:55:30;6.15;;;1.25;;
66607;SDS011;53462;39.616;8.824;2024-03-02T08:57:56;4.65;;;1.02;;
66607;SDS011;53462;39.616;8.824;2024-03-02T09:00:23;2.58;;;0.80;;
66607;SDS011;53462;39.616;8.824;2024-03-02T09:02:50;7.70;;;0.85;;
66607;SDS011;53462;39.616;8.824;2024-03-02T09:05:16;4.55;;;0.93;;
66607;SDS011;53462;39.616;8.824;2024-03-02T09:07:42;5.78;;;0.65;;
66607;SDS011;53462;39.616;8.824;2024-03-02T09:10:08;4.60;;;1.30;;
66607;SDS011;53462;39.616;8.824;2024-03-02T09:12:35;4.80;;;1.08;;
66607;SDS011;53462;39.616;8.824;2024-03-02T09:15:02;6.80;;;0.93;;
66607;SDS011;53462;39.616;8.824;2024-03-02T09:17:29;6.88;;;0.85;;
66607;SDS011;53462;39.616;8.824;2024-03-02T09:19:55;4.63;;;0.88;;
66607;SDS011;53462;39.616;8.824;2024-03-02T09:22:21;7.22;;;1.50;;
66607;SDS011;53462;39.616;8.824;2024-03-02T09:24:48;4.50;;;0.90;;
66607;SDS011;53462;39.616;8.824;2024-03-02T09:27:14;9.50;;;1.00;;
66607;SDS011;53462;39.616;8.824;2024-03-02T09:29:40;5.22;;;1.00;;
66607;SDS011;53462;39.616;8.824;2024-03-02T09:32:06;6.07;;;1.00;;
66607;SDS011;53462;39.616;8.824;2024-03-02T09:34:33;5.95;;;1.20;;
66607;SDS011;53462;39.616;8.824;2024-03-02T09:36:59;8.38;;;1.27;;
66607;SDS011;53462;39.616;8.824;2024-03-02T09:39:25;3.53;;;0.98;;
66607;SDS011;53462;39.616;8.824;2024-03-02T09:41:51;6.30;;;0.98;;
66607;SDS011;53462;39.616;8.824;2024-03-02T09:44:18;4.63;;;1.30;;
66607;SDS011;53462;39.616;8.824;2024-03-02T09:46:48;5.47;;;0.88;;
66607;SDS011;53462;39.616;8.824;2024-03-02T09:49:14;3.90;;;0.80;;
66607;SDS011;53462;39.616;8.824;2024-03-02T09:51:40;3.33;;;0.88;;
66607;SDS011;53462;39.616;8.824;2024-03-02T09:54:12;4.63;;;0.98;;
66607;SDS011;53462;39.616;8.824;2024-03-02T09:56:38;5.63;;;1.00;;
66607;SDS011;53462;39.616;8.824;2024-03-02T09:59:05;5.60;;;1.00;;
66607;SDS011;53462;39.616;8.824;2024-03-02T10:01:31;5.72;;;0.75;;
66607;SDS011;53462;39.616;8.824;2024-03-02T10:03:59;6.78;;;1.00;;
66607;SDS011;53462;39.616;8.824;2024-03-02T10:06:28;4.22;;;0.85;;
66607;SDS011;53462;39.616;8.824;2024-03-02T10:08:54;12.18;;;8.73;;
66607;SDS011;53462;39.616;8.824;2024-03-02T10:11:28;8.38;;;1.60;;
66607;SDS011;53462;39.616;8.824;2024-03-02T10:14:09;8.75;;;1.38;;
66607;SDS011;53462;39.616;8.824;2024-03-02T10:16:40;6.68;;;1.33;;
66607;SDS011;53462;39.616;8.824;2024-03-02T10:19:20;7.70;;;2.40;;
66607;SDS011;53462;39.616;8.824;2024-03-02T10:21:49;4.82;;;2.80;;
66607;SDS011;53462;39.616;8.824;2024-03-02T10:24:17;6.60;;;2.40;;
66607;SDS011;53462;39.616;8.824;2024-03-02T10:26:44;5.00;;;1.92;;
66607;SDS011;53462;39.616;8.824;2024-03-02T10:29:10;5.78;;;1.15;;
66607;SDS011;53462;39.616;8.824;2024-03-02T10:31:40;8.75;;;2.30;;
66607;SDS011;53462;39.616;8.824;2024-03-02T10:34:11;7.55;;;1.17;;
66607;SDS011;53462;39.616;8.824;2024-03-02T10:36:44;5.68;;;1.20;;
66607;SDS011;53462;39.616;8.824;2024-03-02T10:39:13;10.32;;;1.20;;
66607;SDS011;53462;39.616;8.824;2024-03-02T10:41:39;7.13;;;1.15;;
66607;SDS011;53462;39.616;8.824;2024-03-02T10:44:06;5.50;;;1.50;;
66607;SDS011;53462;39.616;8.824;2024-03-02T10:46:34;5.03;;;1.02;;
66607;SDS011;53462;39.616;8.824;2024-03-02T10:49:02;5.82;;;0.90;;
66607;SDS011;53462;39.616;8.824;2024-03-02T10:51:32;3.17;;;1.00;;
66607;SDS011;53462;39.616;8.824;2024-03-02T10:54:02;6.32;;;1.60;;
66607;SDS011;53462;39.616;8.824;2024-03-02T10:56:29;4.95;;;1.50;;
66607;SDS011;53462;39.616;8.824;2024-03-02T11:01:50;5.10;;;1.00;;
66607;SDS011;53462;39.616;8.824;2024-03-02T11:04:18;3.97;;;1.35;;
66607;SDS011;53462;39.616;8.824;2024-03-02T11:06:49;7.28;;;0.90;;
66607;SDS011;53462;39.616;8.824;2024-03-02T11:09:16;6.38;;;0.88;;
66607;SDS011;53462;39.616;8.824;2024-03-02T11:11:44;5.68;;;1.23;;
66607;SDS011;53462;39.616;8.824;2024-03-02T11:14:16;4.32;;;1.20;;
66607;SDS011;53462;39.616;8.824;2024-03-02T11:16:46;7.97;;;1.00;;
66607;SDS011;53462;39.616;8.824;2024-03-02T11:19:13;5.82;;;1.38;;
66607;SDS011;53462;39.616;8.824;2024-03-02T11:21:40;8.00;;;1.65;;
66607;SDS011;53462;39.616;8.824;2024-03-02T11:26:52;7.80;;;1.15;;
66607;SDS011;53462;39.616;8.824;2024-03-02T11:32:06;4.50;;;1.40;;
66607;SDS011;53462;39.616;8.824;2024-03-02T11:34:43;4.88;;;0.93;;
66607;SDS011;53462;39.616;8.824;2024-03-02T11:37:15;4.10;;;1.00;;
66607;SDS011;53462;39.616;8.824;2024-03-02T11:39:51;3.38;;;0.77;;
66607;SDS011;53462;39.616;8.824;2024-03-02T11:42:17;8.90;;;1.80;;
66607;SDS011;53462;39.616;8.824;2024-03-02T11:44:47;5.85;;;0.80;;
66607;SDS011;53462;39.616;8.824;2024-03-02T11:47:15;20.05;;;1.67;;
66607;SDS011;53462;39.616;8.824;2024-03-02T11:49:43;4.30;;;1.90;;
66607;SDS011;53462;39.616;8.824;2024-03-02T11:52:11;5.75;;;2.72;;
66607;SDS011;53462;39.616;8.824;2024-03-02T11:54:41;6.25;;;1.10;;
66607;SDS011;53462;39.616;8.824;2024-03-02T11:57:20;4.45;;;1.52;;
66607;SDS011;53462;39.616;8.824;2024-03-02T11:59:52;4.45;;;1.25;;
66607;SDS011;53462;39.616;8.824;2024-03-02T12:02:20;3.00;;;0.90;;
66607;SDS011;53462;39.616;8.824;2024-03-02T12:04:47;6.55;;;1.50;;
66607;SDS011;53462;39.616;8.824;2024-03-02T12:07:20;8.77;;;2.08;;
66607;SDS011;53462;39.616;8.824;2024-03-02T12:09:48;4.75;;;1.40;;
66607;SDS011;53462;39.616;8.824;2024-03-02T12:12:15;9.45;;;3.78;;
66607;SDS011;53462;39.616;8.824;2024-03-02T12:14:50;7.18;;;0.90;;
66607;SDS011;53462;39.616;8.824;2024-03-02T12:17:18;4.03;;;1.20;;
66607;SDS011;53462;39.616;8.824;2024-03-02T12:19:44;4.60;;;1.13;;
66607;SDS011;53462;39.616;8.824;2024-03-02T12:22:11;6.38;;;1.90;;
66607;SDS011;53462;39.616;8.824;2024-03-02T12:24:37;9.23;;;4.05;;
66607;SDS011;53462;39.616;8.824;2024-03-02T12:27:04;3.58;;;1.27;;
66607;SDS011;53462;39.616;8.824;2024-03-02T12:29:31;4.75;;;3.30;;
66607;SDS011;53462;39.616;8.824;2024-03-02T12:31:56;4.72;;;1.48;;
66607;SDS011;53462;39.616;8.824;2024-03-02T12:34:22;3.15;;;1.00;;
66607;SDS011;53462;39.616;8.824;2024-03-02T12:36:49;5.15;;;1.25;;
66607;SDS011;53462;39.616;8.824;2024-03-02T12:39:18;4.40;;;1.05;;
66607;SDS011;53462;39.616;8.824;2024-03-02T12:41:45;3.88;;;1.15;;
66607;SDS011;53462;39.616;8.824;2024-03-02T12:44:11;6.45;;;1.95;;
66607;SDS011;53462;39.616;8.824;2024-03-02T12:46:37;7.10;;;2.05;;
66607;SDS011;53462;39.616;8.824;2024-03-02T12:49:07;5.30;;;1.90;;
66607;SDS011;53462;39.616;8.824;2024-03-02T12:51:36;8.07;;;3.55;;
66607;SDS011;53462;39.616;8.824;2024-03-02T12:54:09;5.95;;;2.47;;
66607;SDS011;53462;39.616;8.824;2024-03-02T12:56:38;5.50;;;3.10;;
66607;SDS011;53462;39.616;8.824;2024-03-02T12:59:06;5.78;;;3.80;;
66607;SDS011;53462;39.616;8.824;2024-03-02T13:01:32;6.53;;;3.08;;
66607;SDS011;53462;39.616;8.824;2024-03-02T13:03:58;8.07;;;4.90;;
66607;SDS011;53462;39.616;8.824;2024-03-02T13:06:25;4.63;;;1.80;;
66607;SDS011;53462;39.616;8.824;2024-03-02T13:08:54;2.80;;;1.80;;
66607;SDS011;53462;39.616;8.824;2024-03-02T13:11:21;6.68;;;3.53;;
66607;SDS011;53462;39.616;8.824;2024-03-02T13:13:51;5.43;;;1.70;;
66607;SDS011;53462;39.616;8.824;2024-03-02T13:16:17;11.32;;;2.38;;
66607;SDS011;53462;39.616;8.824;2024-03-02T13:18:45;9.00;;;6.32;;
66607;SDS011;53462;39.616;8.824;2024-03-02T13:21:11;9.48;;;4.90;;
66607;SDS011;53462;39.616;8.824;2024-03-02T13:23:37;7.28;;;3.80;;
66607;SDS011;53462;39.616;8.824;2024-03-02T13:26:03;5.80;;;2.85;;
66607;SDS011;53462;39.616;8.824;2024-03-02T13:28:29;2.83;;;0.65;;
66607;SDS011;53462;39.616;8.824;2024-03-02T13:30:55;6.78;;;2.38;;
66607;SDS011;53462;39.616;8.824;2024-03-02T13:33:21;5.97;;;2.03;;
66607;SDS011;53462;39.616;8.824;2024-03-02T13:35:50;6.75;;;2.20;;
66607;SDS011;53462;39.616;8.824;2024-03-02T13:38:19;6.28;;;3.92;;
66607;SDS011;53462;39.616;8.824;2024-03-02T13:40:45;4.13;;;2.28;;
66607;SDS011;53462;39.616;8.824;2024-03-02T13:43:12;5.95;;;2.80;;
66607;SDS011;53462;39.616;8.824;2024-03-02T13:45:38;4.25;;;1.85;;
66607;SDS011;53462;39.616;8.824;2024-03-02T13:48:05;3.17;;;0.60;;
66607;SDS011;53462;39.616;8.824;2024-03-02T13:50:31;4.72;;;0.70;;
66607;SDS011;53462;39.616;8.824;2024-03-02T13:52:57;4.43;;;1.50;;
66607;SDS011;53462;39.616;8.824;2024-03-02T13:55:24;4.45;;;1.30;;
66607;SDS011;53462;39.616;8.824;2024-03-02T13:57:49;4.22;;;1.50;;
66607;SDS011;53462;39.616;8.824;2024-03-02T14:00:16;2.20;;;0.70;;
66607;SDS011;53462;39.616;8.824;2024-03-02T14:02:43;2.22;;;0.80;;
66607;SDS011;53462;39.616;8.824;2024-03-02T14:05:09;2.35;;;0.75;;
66607;SDS011;53462;39.616;8.824;2024-03-02T14:07:39;4.47;;;0.73;;
66607;SDS011;53462;39.616;8.824;2024-03-02T14:10:05;3.47;;;1.52;;
66607;SDS011;53462;39.616;8.824;2024-03-02T14:12:31;2.72;;;1.10;;
66607;SDS011;53462;39.616;8.824;2024-03-02T14:14:57;4.65;;;1.20;;
66607;SDS011;53462;39.616;8.824;2024-03-02T14:17:26;2.47;;;1.20;;
66607;SDS011;53462;39.616;8.824;2024-03-02T14:19:52;5.28;;;1.35;;
66607;SDS011;53462;39.616;8.824;2024-03-02T14:22:19;2.03;;;0.82;;
66607;SDS011;53462;39.616;8.824;2024-03-02T14:24:45;2.95;;;0.70;;
66607;SDS011;53462;39.616;8.824;2024-03-02T14:27:13;4.28;;;0.75;;
66607;SDS011;53462;39.616;8.824;2024-03-02T14:29:39;2.55;;;0.65;;
66607;SDS011;53462;39.616;8.824;2024-03-02T14:32:06;5.88;;;3.00;;
66607;SDS011;53462;39.616;8.824;2024-03-02T14:34:32;3.97;;;1.92;;
66607;SDS011;53462;39.616;8.824;2024-03-02T14:36:58;4.82;;;2.08;;
66607;SDS011;53462;39.616;8.824;2024-03-02T14:39:28;3.58;;;1.98;;
66607;SDS011;53462;39.616;8.824;2024-03-02T14:41:54;3.58;;;1.13;;
66607;SDS011;53462;39.616;8.824;2024-03-02T14:44:21;33.40;;;2.13;;
66607;SDS011;53462;39.616;8.824;2024-03-02T14:46:47;5.05;;;1.92;;
66607;SDS011;53462;39.616;8.824;2024-03-02T14:49:14;2.83;;;1.10;;
66607;SDS011;53462;39.616;8.824;2024-03-02T14:51:40;9.23;;;3.17;;
66607;SDS011;53462;39.616;8.824;2024-03-02T14:54:06;10.40;;;5.45;;